sim
Sign-in with your pilot id or email,
or register
Callsign
Passwort

Schedule Details

Flight Number: OEO4874
Departure: Dortmund Airport (EDLW) at 04:00
Arrival: Fuerteventura Airport (GCFV) at 08:45

Weather Information
Getting current METAR information for EDLW 192150Z AUTO 03005KT 9999 // NCD 14/05 Q1029
Getting current METAR information for GCFV 192200Z AUTO 36015KT 9999 FEW030 BKN045 18/12 Q1018

Schedule Frequency

Route Map